createdAt,value
2018-06-25T00:00:45.347Z,16.24
2018-06-25T00:03:13.095Z,16.26
2018-06-25T00:05:41.423Z,16.30
2018-06-25T00:08:10.323Z,16.32
2018-06-25T00:10:38.086Z,16.37
2018-06-25T00:13:06.987Z,16.43
2018-06-25T00:15:35.311Z,16.40
2018-06-25T00:18:03.634Z,16.45
2018-06-25T00:20:31.970Z,16.54
2018-06-25T00:23:00.289Z,16.58
2018-06-25T00:25:28.040Z,16.62
2018-06-25T00:27:56.941Z,16.56
2018-06-25T00:30:25.267Z,16.50
2018-06-25T00:32:53.000Z,16.44
2018-06-25T00:35:21.903Z,16.39
2018-06-25T00:37:50.218Z,16.35
2018-06-25T00:40:18.541Z,16.33
2018-06-25T00:42:46.289Z,16.39
2018-06-25T00:45:15.198Z,16.47
2018-06-25T00:47:43.514Z,16.53
2018-06-25T00:50:11.841Z,16.58
2018-06-25T00:52:40.174Z,16.64
2018-06-25T00:55:08.500Z,16.70
2018-06-25T00:57:37.760Z,16.74
2018-06-25T01:00:06.085Z,16.80
2018-06-25T01:02:34.408Z,16.81
2018-06-25T01:05:02.732Z,16.74
2018-06-25T01:07:30.534Z,16.56
2018-06-25T01:09:59.748Z,16.40
2018-06-25T01:12:27.867Z,16.33
2018-06-25T01:14:55.610Z,16.32
2018-06-25T01:17:24.508Z,16.30
2018-06-25T01:19:52.284Z,16.33
2018-06-25T01:22:21.177Z,16.37
2018-06-25T01:24:48.949Z,16.44
2018-06-25T01:27:17.278Z,16.42
2018-06-25T01:29:46.182Z,16.33
2018-06-25T01:32:14.506Z,16.29
2018-06-25T01:34:42.855Z,16.28
2018-06-25T01:37:11.170Z,16.28
2018-06-25T01:39:39.493Z,16.21
2018-06-25T01:42:07.822Z,16.17
2018-06-25T01:44:36.134Z,16.14
2018-06-25T01:47:04.468Z,16.12
2018-06-25T01:49:32.787Z,16.15
2018-06-25T01:52:00.523Z,16.27
2018-06-25T01:54:28.847Z,16.28
2018-06-25T01:56:57.166Z,16.20
2018-06-25T01:59:26.123Z,16.12
2018-06-25T02:01:54.444Z,16.07
2018-06-25T02:04:22.202Z,16.05
2018-06-25T02:06:50.541Z,16.03
2018-06-25T02:09:19.433Z,16.01
2018-06-25T02:11:47.164Z,15.95
2018-06-25T02:14:16.067Z,15.90
2018-06-25T02:16:44.387Z,15.87
2018-06-25T02:19:12.711Z,15.92
2018-06-25T02:21:41.024Z,15.96
2018-06-25T02:24:09.350Z,15.92
2018-06-25T02:26:37.089Z,15.93
2018-06-25T02:29:05.475Z,15.92
2018-06-25T02:31:34.368Z,15.99
2018-06-25T02:34:02.694Z,15.97
2018-06-25T02:36:31.025Z,15.90
2018-06-25T02:38:59.348Z,15.89
2018-06-25T02:41:27.669Z,15.83
2018-06-25T02:43:55.417Z,15.82
2018-06-25T02:46:24.329Z,15.83
2018-06-25T02:48:52.660Z,15.86
2018-06-25T02:51:20.988Z,15.83
2018-06-25T02:53:49.313Z,15.81
2018-06-25T02:56:17.645Z,15.82
2018-06-25T02:58:45.973Z,15.83
2018-06-25T03:01:14.350Z,15.82
2018-06-25T03:03:42.679Z,15.84
2018-06-25T03:06:10.419Z,15.91
2018-06-25T03:08:39.320Z,15.95
2018-06-25T03:11:07.638Z,16.00
2018-06-25T03:13:35.970Z,15.98
2018-06-25T03:16:04.292Z,15.94
2018-06-25T03:18:32.621Z,15.96
2018-06-25T03:21:00.950Z,16.01
2018-06-25T03:23:29.273Z,16.06
2018-06-25T03:25:57.015Z,16.12
2018-06-25T03:28:25.915Z,16.15
2018-06-25T03:30:53.669Z,16.16
2018-06-25T03:33:22.574Z,16.14
2018-06-25T03:35:50.894Z,16.08
2018-06-25T03:38:19.216Z,16.07
2018-06-25T03:40:47.545Z,16.15
2018-06-25T03:43:15.941Z,16.16
2018-06-25T03:45:44.201Z,16.14
2018-06-25T03:48:12.576Z,16.10
2018-06-25T03:50:40.851Z,16.14
2018-06-25T03:53:08.592Z,16.11
2018-06-25T03:55:36.910Z,16.06
2018-06-25T03:58:05.228Z,16.06
2018-06-25T04:00:34.797Z,16.09
2018-06-25T04:03:03.172Z,16.06
2018-06-25T04:05:31.536Z,16.07
2018-06-25T04:07:59.829Z,16.12
2018-06-25T04:10:28.167Z,16.12
2018-06-25T04:12:56.483Z,16.14
2018-06-25T04:15:24.808Z,16.14
2018-06-25T04:17:52.585Z,16.16
2018-06-25T04:20:21.479Z,16.16
2018-06-25T04:22:49.983Z,16.18
2018-06-25T04:25:18.680Z,16.19
2018-06-25T04:27:46.452Z,16.21
2018-06-25T04:30:15.308Z,16.23
2018-06-25T04:32:43.065Z,16.25
2018-06-25T04:35:11.380Z,16.24
2018-06-25T04:37:40.285Z,16.31
2018-06-25T04:40:08.624Z,16.35
2018-06-25T04:42:37.161Z,16.46
2018-06-25T04:45:04.924Z,16.59
2018-06-25T04:47:33.818Z,16.70
2018-06-25T04:50:01.556Z,16.77
2018-06-25T04:52:30.465Z,16.82
2018-06-25T04:54:58.198Z,16.76
2018-06-25T04:57:27.098Z,16.78
2018-06-25T04:59:55.417Z,16.85
2018-06-25T05:02:23.895Z,16.89
2018-06-25T05:04:51.690Z,16.81
2018-06-25T05:07:20.013Z,16.75
2018-06-25T05:09:48.910Z,16.69
2018-06-25T05:12:17.227Z,16.63
2018-06-25T05:14:45.872Z,16.61
2018-06-25T05:17:14.190Z,16.63
2018-06-25T05:19:42.508Z,16.65
2018-06-25T05:22:10.240Z,16.72
2018-06-25T05:24:39.182Z,16.81
2018-06-25T05:27:06.926Z,16.82
2018-06-25T05:29:35.828Z,16.87
2018-06-25T05:32:04.157Z,16.89
2018-06-25T05:34:32.477Z,16.94
2018-06-25T05:37:00.801Z,17.04
2018-06-25T05:39:29.468Z,17.08
2018-06-25T05:41:57.950Z,17.12
2018-06-25T05:44:26.269Z,17.11
2018-06-25T05:46:54.588Z,17.11
2018-06-25T05:49:23.286Z,17.12
2018-06-25T05:51:51.624Z,17.10
2018-06-25T05:54:20.879Z,17.10
2018-06-25T05:56:49.209Z,17.05
2018-06-25T05:59:17.540Z,17.05
2018-06-25T06:01:45.268Z,17.03
2018-06-25T06:04:13.595Z,17.03
2018-06-25T06:06:42.573Z,17.05
2018-06-25T06:09:10.314Z,17.12
2018-06-25T06:11:39.223Z,17.12
2018-06-25T06:14:07.534Z,17.16
2018-06-25T06:16:35.857Z,17.12
2018-06-25T06:19:04.183Z,17.10
2018-06-25T06:21:31.924Z,17.14
2018-06-25T06:24:00.259Z,17.13
2018-06-25T06:26:28.638Z,17.12
2018-06-25T06:28:56.900Z,17.15
2018-06-25T06:31:25.800Z,17.24
2018-06-25T06:33:54.121Z,17.34
2018-06-25T06:36:22.435Z,17.47
2018-06-25T06:38:51.230Z,17.58
2018-06-25T06:41:19.425Z,17.64
2018-06-25T06:43:48.319Z,17.59
2018-06-25T06:46:16.630Z,17.57
2018-06-25T06:48:44.954Z,17.60
2018-06-25T06:51:13.270Z,17.68
2018-06-25T06:53:41.584Z,17.79
2018-06-25T06:56:09.919Z,17.91
2018-06-25T06:58:38.253Z,18.02
2018-06-25T07:01:06.593Z,18.11
2018-06-25T07:03:34.912Z,18.13
2018-06-25T07:06:02.677Z,18.16
2018-06-25T07:08:31.024Z,18.17
2018-06-25T07:10:59.942Z,18.17
2018-06-25T07:13:28.246Z,18.17
2018-06-25T07:15:56.574Z,18.18
2018-06-25T07:18:24.904Z,18.16
2018-06-25T07:20:53.284Z,18.12
2018-06-25T07:23:21.567Z,18.13
2018-06-25T07:25:49.890Z,18.15
2018-06-25T07:28:18.213Z,18.19
2018-06-25T07:30:46.542Z,18.17
2018-06-25T07:33:14.864Z,18.17
2018-06-25T07:35:43.184Z,18.18
2018-06-25T07:38:11.518Z,18.22
2018-06-25T07:40:39.860Z,18.25
2018-06-25T07:43:07.602Z,18.25
2018-06-25T07:45:36.489Z,18.27
2018-06-25T07:48:05.157Z,18.33
2018-06-25T07:50:33.479Z,18.38
2018-06-25T07:53:01.802Z,18.45
2018-06-25T07:55:30.130Z,18.52
2018-06-25T07:57:58.443Z,18.61
2018-06-25T08:00:26.789Z,18.69
2018-06-25T08:02:55.100Z,18.79
2018-06-25T08:05:22.856Z,18.90
2018-06-25T08:07:51.745Z,19.02
2018-06-25T08:10:20.170Z,19.09
2018-06-25T08:12:48.480Z,19.15
2018-06-25T08:15:17.257Z,19.23
2018-06-25T08:17:44.997Z,19.29
2018-06-25T08:20:14.220Z,19.36
2018-06-25T08:22:42.536Z,19.40
2018-06-25T08:25:11.202Z,19.43
2018-06-25T08:27:39.002Z,19.46
2018-06-25T08:30:07.902Z,19.50
2018-06-25T08:32:36.186Z,19.51
2018-06-25T08:35:04.513Z,19.52
2018-06-25T08:37:32.843Z,19.53
2018-06-25T08:40:00.598Z,19.49
2018-06-25T08:42:29.502Z,19.45
2018-06-25T08:44:57.244Z,19.42
2018-06-25T08:47:26.371Z,19.41
2018-06-25T08:49:54.498Z,19.41
2018-06-25T08:52:23.179Z,19.39
2018-06-25T08:54:53.018Z,19.34
2018-06-25T08:57:21.337Z,19.27
2018-06-25T08:59:49.680Z,19.24
2018-06-25T09:02:17.725Z,19.24
2018-06-25T09:04:46.630Z,19.28
2018-06-25T09:07:14.949Z,19.31
2018-06-25T09:09:42.747Z,19.39
2018-06-25T09:12:11.669Z,19.49
2018-06-25T09:14:39.985Z,19.56
2018-06-25T09:17:08.309Z,19.62
2018-06-25T09:19:36.632Z,19.68
2018-06-25T09:22:05.261Z,19.75
2018-06-25T09:24:33.298Z,19.81
2018-06-25T09:27:02.446Z,19.89
2018-06-25T09:29:30.770Z,19.97
2018-06-25T09:31:59.095Z,20.02
2018-06-25T09:34:27.429Z,20.05
2018-06-25T09:36:55.764Z,20.12
2018-06-25T09:39:23.501Z,20.19
2018-06-25T09:41:52.711Z,20.24
2018-06-25T09:44:21.042Z,20.27
2018-06-25T09:46:49.377Z,20.27
2018-06-25T09:49:17.712Z,20.28
2018-06-25T09:51:46.035Z,20.23
2018-06-25T09:54:13.771Z,20.22
2018-06-25T09:56:42.669Z,20.22
2018-06-25T09:59:11.000Z,20.23
2018-06-25T10:01:39.314Z,20.25
2018-06-25T10:04:07.629Z,20.29
2018-06-25T10:06:35.951Z,20.34
2018-06-25T10:09:04.270Z,20.37
2018-06-25T10:11:32.610Z,20.38
2018-06-25T10:14:01.018Z,20.40
2018-06-25T10:16:29.353Z,20.42
2018-06-25T10:18:57.682Z,20.47
2018-06-25T10:21:26.081Z,20.49
2018-06-25T10:23:54.336Z,20.53
2018-06-25T10:26:23.653Z,20.58
2018-06-25T10:28:51.975Z,20.63
2018-06-25T10:31:19.713Z,20.65
2018-06-25T10:33:48.037Z,20.65
2018-06-25T10:36:16.365Z,20.66
2018-06-25T10:38:45.264Z,20.63
2018-06-25T10:41:13.597Z,20.62
2018-06-25T10:43:41.922Z,20.60
2018-06-25T10:46:09.672Z,20.60
2018-06-25T10:48:38.582Z,20.57
2018-06-25T10:51:06.323Z,20.59
2018-06-25T10:53:35.224Z,20.63
2018-06-25T10:56:04.109Z,20.65
2018-06-25T10:58:31.855Z,20.67
2018-06-25T11:01:00.761Z,20.68
2018-06-25T11:03:29.070Z,20.69
2018-06-25T11:05:56.881Z,20.65
2018-06-25T11:08:26.008Z,20.62
2018-06-25T11:10:54.117Z,20.57
2018-06-25T11:13:22.429Z,20.58
2018-06-25T11:15:50.755Z,20.58
2018-06-25T11:18:19.092Z,20.61
2018-06-25T11:20:47.420Z,20.61
2018-06-25T11:23:15.745Z,20.56
2018-06-25T11:25:44.079Z,20.57
2018-06-25T11:28:12.408Z,20.64
2018-06-25T11:30:40.731Z,20.71
2018-06-25T11:33:09.425Z,20.75
2018-06-25T11:35:37.738Z,20.78
2018-06-25T11:38:06.077Z,20.83
2018-06-25T11:40:34.419Z,20.87
2018-06-25T11:43:02.733Z,20.89
2018-06-25T11:45:30.470Z,20.95
2018-06-25T11:47:59.380Z,21.01
2018-06-25T11:50:27.702Z,21.08
2018-06-25T11:52:55.482Z,21.16
2018-06-25T11:55:24.383Z,21.18
2018-06-25T11:57:52.711Z,21.20
2018-06-25T12:00:21.038Z,21.23
2018-06-25T12:02:49.473Z,21.27
2018-06-25T12:05:17.120Z,21.32
2018-06-25T12:07:45.504Z,21.35
2018-06-25T12:10:14.350Z,21.35
2018-06-25T12:12:42.688Z,21.34
2018-06-25T12:15:11.036Z,21.34
2018-06-25T12:17:39.412Z,21.31
2018-06-25T12:20:07.753Z,21.31
2018-06-25T12:22:35.901Z,21.30
2018-06-25T12:25:04.390Z,21.30
2018-06-25T12:27:32.735Z,21.29
2018-06-25T12:30:00.506Z,21.27
2018-06-25T12:32:29.841Z,21.26
2018-06-25T12:34:58.200Z,21.22
2018-06-25T12:37:25.956Z,21.18
2018-06-25T12:39:54.862Z,21.10
2018-06-25T12:42:23.175Z,21.02
2018-06-25T12:44:51.521Z,20.97
2018-06-25T12:47:19.883Z,20.94
2018-06-25T12:49:47.622Z,20.90
2018-06-25T12:52:16.947Z,20.91
2018-06-25T12:54:44.460Z,20.95
2018-06-25T12:57:12.884Z,20.97
2018-06-25T12:59:41.709Z,20.99
2018-06-25T13:02:09.451Z,21.04
2018-06-25T13:04:37.784Z,21.08
2018-06-25T13:07:06.682Z,21.11
2018-06-25T13:09:40.373Z,21.14
2018-06-25T13:12:09.247Z,21.20
2018-06-25T13:14:37.591Z,21.24
2018-06-25T13:17:05.329Z,21.34
2018-06-25T13:19:33.693Z,21.41
2018-06-25T13:22:02.616Z,21.45
2018-06-25T13:24:30.935Z,21.50
2018-06-25T13:26:59.487Z,21.55
2018-06-25T13:29:27.614Z,21.63
2018-06-25T13:31:55.930Z,21.74
2018-06-25T13:34:23.670Z,21.81
2018-06-25T13:36:52.589Z,21.78
2018-06-25T13:39:20.958Z,21.76
2018-06-25T13:41:48.705Z,21.74
2018-06-25T13:44:17.668Z,21.76
2018-06-25T13:46:45.450Z,21.74
2018-06-25T13:49:14.352Z,21.72
2018-06-25T13:51:42.898Z,21.68
2018-06-25T13:54:11.253Z,21.66
2018-06-25T13:56:39.333Z,21.64
2018-06-25T13:59:07.076Z,21.64
2018-06-25T14:01:35.981Z,21.60
2018-06-25T14:04:05.453Z,21.47
2018-06-25T14:06:36.491Z,21.49
2018-06-25T14:09:01.799Z,21.51
2018-06-25T14:11:30.119Z,21.54
2018-06-25T14:13:57.857Z,21.50
2018-06-25T14:16:26.818Z,21.48
2018-06-25T14:18:56.550Z,21.48
2018-06-25T14:21:30.230Z,21.49
2018-06-25T14:24:01.349Z,21.62
2018-06-25T14:26:31.256Z,21.75
2018-06-25T14:29:00.619Z,21.90
2018-06-25T14:34:13.898Z,22.76
2018-06-25T14:36:49.838Z,23.15
2018-06-25T14:39:23.492Z,23.38
2018-06-25T14:41:52.733Z,23.68
2018-06-25T14:44:20.135Z,24.20
2018-06-25T14:46:53.578Z,24.55
2018-06-25T14:49:23.004Z,24.82
2018-06-25T14:51:50.995Z,25.10
2018-06-25T14:54:19.337Z,25.49
2018-06-25T14:56:48.485Z,25.74
2018-06-25T14:59:16.248Z,25.99
2018-06-25T15:01:45.359Z,25.92
2018-06-25T15:04:12.872Z,25.48
2018-06-25T15:06:41.794Z,24.98
2018-06-25T15:09:10.114Z,24.72
2018-06-25T15:11:38.450Z,24.58
2018-06-25T15:14:07.003Z,24.57
2018-06-25T15:16:36.784Z,24.54
2018-06-25T15:19:05.095Z,24.56
2018-06-25T15:21:33.370Z,24.49
2018-06-25T15:24:01.860Z,24.34
2018-06-25T15:26:30.178Z,24.16
2018-06-25T15:28:58.493Z,23.94
2018-06-25T15:31:26.866Z,23.81
2018-06-25T15:33:55.182Z,23.69
2018-06-25T15:36:23.508Z,23.53
2018-06-25T15:38:51.266Z,23.34
2018-06-25T15:41:20.267Z,23.24
2018-06-25T15:43:48.580Z,23.22
2018-06-25T15:46:16.911Z,23.15
2018-06-25T15:48:45.234Z,23.10
2018-06-25T15:51:12.979Z,23.01
2018-06-25T15:53:42.160Z,23.01
2018-06-25T15:56:09.627Z,23.01
2018-06-25T15:58:38.631Z,23.00
2018-06-25T16:01:07.011Z,22.97
2018-06-25T16:03:35.341Z,22.92
2018-06-25T16:06:04.295Z,22.87
2018-06-25T16:08:31.423Z,22.81
2018-06-25T16:11:00.339Z,22.77
2018-06-25T16:13:28.105Z,22.73
2018-06-25T16:15:57.028Z,22.63
2018-06-25T16:18:24.951Z,22.53
2018-06-25T16:20:53.865Z,22.46
2018-06-25T16:23:22.189Z,22.40
2018-06-25T16:25:51.266Z,22.37
2018-06-25T16:28:20.168Z,22.29
2018-06-25T16:30:48.470Z,22.24
2018-06-25T16:33:16.805Z,22.17
2018-06-25T16:35:45.123Z,22.11
2018-06-25T16:38:13.450Z,22.06
2018-06-25T16:40:41.834Z,22.04
2018-06-25T16:43:10.107Z,21.96
2018-06-25T16:45:38.443Z,21.83
2018-06-25T16:48:13.975Z,21.76
2018-06-25T16:50:42.286Z,21.74
2018-06-25T16:53:10.611Z,21.68
2018-06-25T16:55:38.950Z,21.62
2018-06-25T16:58:07.279Z,21.60
2018-06-25T17:00:35.593Z,21.61
2018-06-25T17:03:03.336Z,21.61
2018-06-25T17:05:32.238Z,21.57
2018-06-25T17:08:00.563Z,21.54
2018-06-25T17:10:28.306Z,21.51
2018-06-25T17:12:57.204Z,21.48
2018-06-25T17:15:29.656Z,21.46
2018-06-25T17:17:59.532Z,21.40
2018-06-25T17:20:25.941Z,21.35
2018-06-25T17:22:54.516Z,21.33
2018-06-25T17:25:23.366Z,21.33
2018-06-25T17:27:53.735Z,21.29
2018-06-25T17:30:20.229Z,21.25
2018-06-25T17:32:48.536Z,21.25
2018-06-25T17:35:17.795Z,21.20
2018-06-25T17:37:46.183Z,21.18
2018-06-25T17:40:16.972Z,21.12
2018-06-25T17:42:46.626Z,21.11
2018-06-25T17:45:13.953Z,21.11
2018-06-25T17:47:42.531Z,21.04
2018-06-25T17:50:11.112Z,20.99
2018-06-25T17:52:39.699Z,20.97
2018-06-25T17:55:08.022Z,20.84
2018-06-25T17:57:35.804Z,20.79
2018-06-25T18:00:05.697Z,20.80
2018-06-25T18:02:33.112Z,20.80
2018-06-25T18:05:02.318Z,20.80
2018-06-25T18:07:30.438Z,20.79
2018-06-25T18:10:00.491Z,20.78
2018-06-25T18:12:27.743Z,20.71
2018-06-25T18:14:56.747Z,20.62
2018-06-25T18:17:26.897Z,20.61
2018-06-25T18:19:58.711Z,20.61
2018-06-25T18:22:37.254Z,20.60
2018-06-25T18:24:59.573Z,20.52
2018-06-25T18:27:29.621Z,20.50
2018-06-25T18:29:59.553Z,20.48
2018-06-25T18:32:29.391Z,20.46
2018-06-25T18:34:57.121Z,20.41
2018-06-25T18:37:26.978Z,20.39
2018-06-25T18:39:55.711Z,20.37
2018-06-25T18:42:22.671Z,20.34
2018-06-25T18:44:53.713Z,20.31
2018-06-25T18:47:19.375Z,20.26
2018-06-25T18:49:48.300Z,20.18
2018-06-25T18:52:16.479Z,20.16
2018-06-25T18:54:44.877Z,20.15
2018-06-25T18:57:13.265Z,20.13
2018-06-25T18:59:43.262Z,20.06
2018-06-25T19:02:11.940Z,20.03
2018-06-25T19:04:42.887Z,20.03
2018-06-25T19:07:10.202Z,20.02
2018-06-25T19:09:38.324Z,19.96
2018-06-25T19:12:06.685Z,19.90
2018-06-25T19:14:35.477Z,19.82
2018-06-25T19:17:04.312Z,19.75
2018-06-25T19:19:32.664Z,19.69
2018-06-25T19:22:01.504Z,19.62
2018-06-25T19:24:30.142Z,19.58
2018-06-25T19:26:59.785Z,19.54
2018-06-25T19:29:26.413Z,19.51
2018-06-25T19:31:55.675Z,19.46
2018-06-25T19:34:24.694Z,19.41
2018-06-25T19:36:53.061Z,19.40
2018-06-25T19:39:22.565Z,19.37
2018-06-25T19:41:50.861Z,19.35
2018-06-25T19:44:23.113Z,19.34
2018-06-25T19:46:47.566Z,19.30
2018-06-25T19:49:18.881Z,19.24
2018-06-25T19:51:46.487Z,19.24
2018-06-25T19:54:15.773Z,19.27
2018-06-25T19:56:44.226Z,19.28
2018-06-25T19:59:12.396Z,19.18
2018-06-25T20:01:41.049Z,19.10
2018-06-25T20:04:09.716Z,19.12
2018-06-25T20:06:38.654Z,19.09
2018-06-25T20:09:06.878Z,18.88
2018-06-25T20:11:35.330Z,18.73
2018-06-25T20:14:03.659Z,18.64
2018-06-25T20:16:32.028Z,18.71
2018-06-25T20:19:04.201Z,18.77
2018-06-25T20:21:30.420Z,18.83
2018-06-25T20:24:00.840Z,18.84
2018-06-25T20:26:28.493Z,18.74
2018-06-25T20:28:58.571Z,18.64
2018-06-25T20:31:28.666Z,18.52
2018-06-25T20:34:06.780Z,18.43
2018-06-25T20:36:38.052Z,18.33
2018-06-25T20:39:03.438Z,18.27
2018-06-25T20:41:33.875Z,18.24
2018-06-25T20:44:04.562Z,18.26
2018-06-25T20:46:43.489Z,18.38
2018-06-25T20:49:06.608Z,18.48
2018-06-25T20:51:46.444Z,18.54
2018-06-25T20:54:15.979Z,18.53
2018-06-25T20:56:59.854Z,18.49
2018-06-25T20:59:39.393Z,18.45
2018-06-25T21:02:08.198Z,18.44
2018-06-25T21:04:40.803Z,18.44
2018-06-25T21:07:16.402Z,18.42
2018-06-25T21:09:53.492Z,18.30
2018-06-25T21:12:32.840Z,18.11
2018-06-25T21:15:22.653Z,17.95
2018-06-25T21:17:27.765Z,17.96
2018-06-25T21:19:56.097Z,18.04
2018-06-25T21:22:25.179Z,18.03
2018-06-25T21:24:54.666Z,17.95
2018-06-25T21:27:22.637Z,17.91
2018-06-25T21:29:51.545Z,17.87
2018-06-25T21:32:19.907Z,17.95
2018-06-25T21:34:51.317Z,18.01
2018-06-25T21:37:16.752Z,18.03
2018-06-25T21:39:45.285Z,18.00
2018-06-25T21:42:13.513Z,17.97
2018-06-25T21:44:41.946Z,17.89
2018-06-25T21:47:14.676Z,17.78
2018-06-25T21:49:43.544Z,17.72
2018-06-25T21:52:12.158Z,17.64
2018-06-25T21:54:40.947Z,17.59
2018-06-25T21:57:09.486Z,17.58
2018-06-25T21:59:37.743Z,17.50
2018-06-25T22:02:05.969Z,17.45
2018-06-25T22:04:33.717Z,17.37
2018-06-25T22:07:02.618Z,17.39
2018-06-25T22:09:30.425Z,17.35
2018-06-25T22:11:59.827Z,17.41
2018-06-25T22:14:29.259Z,17.40
2018-06-25T22:16:57.471Z,17.37
2018-06-25T22:19:26.740Z,17.29
2018-06-25T22:21:57.966Z,17.27
2018-06-25T22:24:27.253Z,17.36
2018-06-25T22:26:55.584Z,17.43
2018-06-25T22:29:23.880Z,17.54
2018-06-25T22:31:52.267Z,17.56
2018-06-25T22:34:20.637Z,17.54
2018-06-25T22:36:49.133Z,17.61
2018-06-25T22:39:16.872Z,17.59
2018-06-25T22:41:45.772Z,17.55
2018-06-25T22:44:14.135Z,17.51
2018-06-25T22:46:42.517Z,17.57
2018-06-25T22:49:10.846Z,17.54
2018-06-25T22:51:39.188Z,17.41
2018-06-25T22:54:07.506Z,17.29
2018-06-25T22:56:35.821Z,17.25
2018-06-25T22:59:04.241Z,17.13
2018-06-25T23:01:31.998Z,17.11
2018-06-25T23:04:00.899Z,17.08
2018-06-25T23:06:29.228Z,17.09
2018-06-25T23:08:57.552Z,17.08
2018-06-25T23:11:26.624Z,17.04
2018-06-25T23:13:54.245Z,17.02
2018-06-25T23:16:22.706Z,16.94
2018-06-25T23:18:51.030Z,17.04
2018-06-25T23:21:19.373Z,17.07
2018-06-25T23:23:47.126Z,17.07
2018-06-25T23:26:16.030Z,16.87
2018-06-25T23:28:43.801Z,16.79
2018-06-25T23:31:12.136Z,16.84
2018-06-25T23:33:40.441Z,16.88
2018-06-25T23:36:09.340Z,16.88
2018-06-25T23:38:37.654Z,16.84
2018-06-25T23:41:05.977Z,16.85
2018-06-25T23:43:33.721Z,16.91
2018-06-25T23:46:02.633Z,17.05
2018-06-25T23:48:30.954Z,17.15
2018-06-25T23:51:00.039Z,17.21
2018-06-25T23:53:28.366Z,17.29
2018-06-25T23:55:56.693Z,17.31
2018-06-25T23:58:25.015Z,17.30
